sensor_id;sensor_type;location;lat;lon;timestamp;pressure;altitude;pressure_sealevel;temperature;humidity
3780;BME280;1905;52.482;9.802;2023-04-19T00:00:14;102430.34;;;11.41;64.59
3780;BME280;1905;52.482;9.802;2023-04-19T00:02:42;102438.28;;;11.41;65.09
3780;BME280;1905;52.482;9.802;2023-04-19T00:05:10;102422.47;;;11.38;64.73
3780;BME280;1905;52.482;9.802;2023-04-19T00:07:40;102432.19;;;11.35;65.08
3780;BME280;1905;52.482;9.802;2023-04-19T00:10:10;102427.81;;;11.34;64.12
3780;BME280;1905;52.482;9.802;2023-04-19T00:12:37;102426.97;;;11.31;64.76
3780;BME280;1905;52.482;9.802;2023-04-19T00:15:05;102429.66;;;11.29;65.32
3780;BME280;1905;52.482;9.802;2023-04-19T00:17:33;102425.31;;;11.27;64.79
3780;BME280;1905;52.482;9.802;2023-04-19T00:20:01;102426.28;;;11.21;64.71
3780;BME280;1905;52.482;9.802;2023-04-19T00:22:29;102429.81;;;11.20;64.76
3780;BME280;1905;52.482;9.802;2023-04-19T00:25:02;102433.50;;;11.13;64.19
3780;BME280;1905;52.482;9.802;2023-04-19T00:27:30;102430.84;;;11.12;65.13
3780;BME280;1905;52.482;9.802;2023-04-19T00:29:58;102428.25;;;11.10;65.07
3780;BME280;1905;52.482;9.802;2023-04-19T00:32:26;102430.94;;;11.07;63.88
3780;BME280;1905;52.482;9.802;2023-04-19T00:34:53;102433.69;;;11.03;65.17
3780;BME280;1905;52.482;9.802;2023-04-19T00:37:22;102432.91;;;10.96;64.65
3780;BME280;1905;52.482;9.802;2023-04-19T00:39:49;102430.25;;;10.96;64.24
3780;BME280;1905;52.482;9.802;2023-04-19T00:42:18;102430.31;;;10.93;64.77
3780;BME280;1905;52.482;9.802;2023-04-19T00:44:46;102434.78;;;10.90;64.24
3780;BME280;1905;52.482;9.802;2023-04-19T00:47:14;102442.78;;;10.85;64.84
3780;BME280;1905;52.482;9.802;2023-04-19T00:49:42;102438.47;;;10.81;64.49
3780;BME280;1905;52.482;9.802;2023-04-19T00:52:09;102434.09;;;10.77;64.91
3780;BME280;1905;52.482;9.802;2023-04-19T00:54:38;102443.00;;;10.73;64.97
3780;BME280;1905;52.482;9.802;2023-04-19T00:57:06;102439.56;;;10.68;65.39
3780;BME280;1905;52.482;9.802;2023-04-19T00:59:35;102437.84;;;10.64;65.65
3780;BME280;1905;52.482;9.802;2023-04-19T01:02:03;102442.34;;;10.59;64.42
3780;BME280;1905;52.482;9.802;2023-04-19T01:04:32;102445.06;;;10.53;65.47
3780;BME280;1905;52.482;9.802;2023-04-19T01:07:00;102438.09;;;10.47;64.75
3780;BME280;1905;52.482;9.802;2023-04-19T01:09:29;102439.00;;;10.45;65.25
3780;BME280;1905;52.482;9.802;2023-04-19T01:11:56;102435.56;;;10.40;65.21
3780;BME280;1905;52.482;9.802;2023-04-19T01:14:24;102436.47;;;10.39;64.33
3780;BME280;1905;52.482;9.802;2023-04-19T01:16:53;102440.09;;;10.32;64.89
3780;BME280;1905;52.482;9.802;2023-04-19T01:19:21;102433.13;;;10.25;64.57
3780;BME280;1905;52.482;9.802;2023-04-19T01:21:49;102434.97;;;10.20;65.25
3780;BME280;1905;52.482;9.802;2023-04-19T01:24:19;102438.56;;;10.15;65.73
3780;BME280;1905;52.482;9.802;2023-04-19T01:26:48;102438.59;;;10.09;65.48
3780;BME280;1905;52.482;9.802;2023-04-19T01:29:16;102440.41;;;10.07;65.97
3780;BME280;1905;52.482;9.802;2023-04-19T01:31:44;102432.53;;;10.04;64.99
3780;BME280;1905;52.482;9.802;2023-04-19T01:34:16;102436.13;;;9.99;65.70
3780;BME280;1905;52.482;9.802;2023-04-19T01:36:44;102437.09;;;9.90;65.37
3780;BME280;1905;52.482;9.802;2023-04-19T01:39:11;102438.91;;;9.88;65.53
3780;BME280;1905;52.482;9.802;2023-04-19T01:41:40;102430.16;;;9.83;65.39
3780;BME280;1905;52.482;9.802;2023-04-19T01:44:08;102428.47;;;9.78;65.73
3780;BME280;1905;52.482;9.802;2023-04-19T01:46:35;102433.78;;;9.73;65.53
3780;BME280;1905;52.482;9.802;2023-04-19T01:49:04;102432.03;;;9.75;65.12
3780;BME280;1905;52.482;9.802;2023-04-19T01:51:32;102426.78;;;9.72;65.32
3780;BME280;1905;52.482;9.802;2023-04-19T01:53:59;102429.47;;;9.68;65.73
3780;BME280;1905;52.482;9.802;2023-04-19T01:56:28;102423.38;;;9.64;65.85
3780;BME280;1905;52.482;9.802;2023-04-19T01:58:56;102416.38;;;9.60;65.09
3780;BME280;1905;52.482;9.802;2023-04-19T02:01:24;102416.50;;;9.51;66.07
3780;BME280;1905;52.482;9.802;2023-04-19T02:03:52;102421.81;;;9.43;66.10
3780;BME280;1905;52.482;9.802;2023-04-19T02:06:19;102418.34;;;9.41;66.05
3780;BME280;1905;52.482;9.802;2023-04-19T02:08:49;102415.72;;;9.38;65.56
3780;BME280;1905;52.482;9.802;2023-04-19T02:11:16;102421.94;;;9.33;65.58
3780;BME280;1905;52.482;9.802;2023-04-19T02:13:44;102417.63;;;9.26;66.08
3780;BME280;1905;52.482;9.802;2023-04-19T02:16:13;102429.09;;;9.22;65.27
3780;BME280;1905;52.482;9.802;2023-04-19T02:18:41;102427.44;;;9.12;66.08
3780;BME280;1905;52.482;9.802;2023-04-19T02:21:09;102429.25;;;9.07;66.26
3780;BME280;1905;52.482;9.802;2023-04-19T02:23:37;102438.09;;;8.99;66.32
3780;BME280;1905;52.482;9.802;2023-04-19T02:26:04;102432.88;;;8.96;66.35
3780;BME280;1905;52.482;9.802;2023-04-19T02:28:32;102434.63;;;8.91;66.36
3780;BME280;1905;52.482;9.802;2023-04-19T02:31:03;102432.06;;;8.87;66.86
3780;BME280;1905;52.482;9.802;2023-04-19T02:33:34;102431.28;;;8.77;67.47
3780;BME280;1905;52.482;9.802;2023-04-19T02:36:02;102439.22;;;8.70;66.55
3780;BME280;1905;52.482;9.802;2023-04-19T02:38:32;102439.22;;;8.70;66.96
3780;BME280;1905;52.482;9.802;2023-04-19T02:40:59;102431.34;;;8.65;67.20
3780;BME280;1905;52.482;9.802;2023-04-19T02:43:29;102433.16;;;8.57;66.64
3780;BME280;1905;52.482;9.802;2023-04-19T02:45:57;102435.84;;;8.56;67.71
3780;BME280;1905;52.482;9.802;2023-04-19T02:48:24;102431.50;;;8.47;67.20
3780;BME280;1905;52.482;9.802;2023-04-19T02:50:53;102437.69;;;8.42;67.94
3780;BME280;1905;52.482;9.802;2023-04-19T02:53:21;102436.84;;;8.33;67.36
3780;BME280;1905;52.482;9.802;2023-04-19T02:55:49;102435.13;;;8.31;67.69
3780;BME280;1905;52.482;9.802;2023-04-19T02:58:18;102435.13;;;8.28;67.38
3780;BME280;1905;52.482;9.802;2023-04-19T03:00:58;102434.25;;;8.21;67.28
3780;BME280;1905;52.482;9.802;2023-04-19T03:03:26;102426.38;;;8.17;67.86
3780;BME280;1905;52.482;9.802;2023-04-19T03:05:55;102425.53;;;8.10;67.56
3780;BME280;1905;52.482;9.802;2023-04-19T03:08:22;102424.69;;;8.10;68.20
3780;BME280;1905;52.482;9.802;2023-04-19T03:10:50;102428.19;;;8.06;68.01
3780;BME280;1905;52.482;9.802;2023-04-19T03:13:18;102426.50;;;7.99;67.84
3780;BME280;1905;52.482;9.802;2023-04-19T03:15:46;102427.34;;;7.99;67.65
3780;BME280;1905;52.482;9.802;2023-04-19T03:18:15;102433.56;;;7.91;67.52
3780;BME280;1905;52.482;9.802;2023-04-19T03:20:43;102425.66;;;7.86;67.97
3780;BME280;1905;52.482;9.802;2023-04-19T03:23:12;102430.94;;;7.82;68.12
3780;BME280;1905;52.482;9.802;2023-04-19T03:25:41;102425.72;;;7.77;68.11
3780;BME280;1905;52.482;9.802;2023-04-19T03:28:21;102416.94;;;7.75;68.40
3780;BME280;1905;52.482;9.802;2023-04-19T03:31:15;102414.34;;;7.70;68.16
3780;BME280;1905;52.482;9.802;2023-04-19T03:33:45;102416.13;;;7.65;68.16
3780;BME280;1905;52.482;9.802;2023-04-19T03:36:13;102425.78;;;7.60;68.85
3780;BME280;1905;52.482;9.802;2023-04-19T03:38:43;102417.91;;;7.60;68.59
3780;BME280;1905;52.482;9.802;2023-04-19T03:41:19;102417.91;;;7.54;68.24
3780;BME280;1905;52.482;9.802;2023-04-19T03:43:52;102412.69;;;7.50;68.64
3780;BME280;1905;52.482;9.802;2023-04-19T03:46:22;102414.44;;;7.46;68.57
3780;BME280;1905;52.482;9.802;2023-04-19T03:48:50;102416.19;;;7.41;68.49
3780;BME280;1905;52.482;9.802;2023-04-19T03:51:20;102424.94;;;7.40;69.00
3780;BME280;1905;52.482;9.802;2023-04-19T03:53:49;102417.94;;;7.39;68.14
3780;BME280;1905;52.482;9.802;2023-04-19T03:56:17;102422.34;;;7.36;68.15
3780;BME280;1905;52.482;9.802;2023-04-19T03:58:46;102417.97;;;7.30;68.27
3780;BME280;1905;52.482;9.802;2023-04-19T04:01:17;102422.34;;;7.31;68.41
3780;BME280;1905;52.482;9.802;2023-04-19T04:03:45;102423.25;;;7.24;68.40
3780;BME280;1905;52.482;9.802;2023-04-19T04:06:13;102423.25;;;7.24;68.44
3780;BME280;1905;52.482;9.802;2023-04-19T04:08:41;102418.00;;;7.21;68.40
3780;BME280;1905;52.482;9.802;2023-04-19T04:11:11;102416.25;;;7.14;68.94
3780;BME280;1905;52.482;9.802;2023-04-19T04:13:39;102418.00;;;7.18;68.81
3780;BME280;1905;52.482;9.802;2023-04-19T04:16:16;102417.16;;;7.08;69.22
3780;BME280;1905;52.482;9.802;2023-04-19T04:18:43;102417.13;;;7.10;68.91
3780;BME280;1905;52.482;9.802;2023-04-19T04:21:13;102416.25;;;7.05;68.85
3780;BME280;1905;52.482;9.802;2023-04-19T04:23:44;102409.28;;;6.98;69.10
3780;BME280;1905;52.482;9.802;2023-04-19T04:26:21;102412.78;;;6.97;68.88
3780;BME280;1905;52.482;9.802;2023-04-19T04:29:19;102415.41;;;6.97;68.86
3780;BME280;1905;52.482;9.802;2023-04-19T04:31:50;102409.28;;;6.92;68.98
3780;BME280;1905;52.482;9.802;2023-04-19T04:34:22;102405.78;;;6.87;68.97
3780;BME280;1905;52.482;9.802;2023-04-19T04:36:58;102414.53;;;6.89;69.22
3780;BME280;1905;52.482;9.802;2023-04-19T04:39:28;102413.66;;;6.87;68.91
3780;BME280;1905;52.482;9.802;2023-04-19T04:41:57;102423.31;;;6.82;68.43
3780;BME280;1905;52.482;9.802;2023-04-19T04:44:25;102419.78;;;6.83;69.45
3780;BME280;1905;52.482;9.802;2023-04-19T04:46:53;102410.16;;;6.80;68.87
3780;BME280;1905;52.482;9.802;2023-04-19T04:49:24;102418.91;;;6.75;68.79
3780;BME280;1905;52.482;9.802;2023-04-19T04:51:52;102424.19;;;6.76;69.04
3780;BME280;1905;52.482;9.802;2023-04-19T04:54:20;102425.03;;;6.78;68.88
3780;BME280;1905;52.482;9.802;2023-04-19T04:56:48;102422.41;;;6.72;68.87
3780;BME280;1905;52.482;9.802;2023-04-19T04:59:17;102416.28;;;6.72;68.99
3780;BME280;1905;52.482;9.802;2023-04-19T05:01:47;102416.28;;;6.70;68.77
3780;BME280;1905;52.482;9.802;2023-04-19T05:04:16;102421.53;;;6.69;68.86
3780;BME280;1905;52.482;9.802;2023-04-19T05:06:45;102428.56;;;6.68;69.06
3780;BME280;1905;52.482;9.802;2023-04-19T05:09:20;102419.78;;;6.66;68.67
3780;BME280;1905;52.482;9.802;2023-04-19T05:11:49;102423.28;;;6.64;68.86
3780;BME280;1905;52.482;9.802;2023-04-19T05:14:18;102419.81;;;6.71;68.49
3780;BME280;1905;52.482;9.802;2023-04-19T05:16:45;102428.53;;;6.67;68.69
3780;BME280;1905;52.482;9.802;2023-04-19T05:19:13;102425.03;;;6.68;68.89
3780;BME280;1905;52.482;9.802;2023-04-19T05:21:48;102420.66;;;6.67;68.74
3780;BME280;1905;52.482;9.802;2023-04-19T05:24:16;102420.66;;;6.65;68.48
3780;BME280;1905;52.482;9.802;2023-04-19T05:26:44;102425.03;;;6.69;68.64
3780;BME280;1905;52.482;9.802;2023-04-19T05:29:12;102416.28;;;6.72;67.90
3780;BME280;1905;52.482;9.802;2023-04-19T05:31:45;102410.16;;;6.62;68.49
3780;BME280;1905;52.482;9.802;2023-04-19T05:34:24;102414.53;;;6.68;68.73
3780;BME280;1905;52.482;9.802;2023-04-19T05:36:53;102418.91;;;6.70;67.80
3780;BME280;1905;52.482;9.802;2023-04-19T05:39:21;102420.66;;;6.70;68.35
3780;BME280;1905;52.482;9.802;2023-04-19T05:41:50;102418.03;;;6.73;68.15
3780;BME280;1905;52.482;9.802;2023-04-19T05:44:17;102418.03;;;6.70;68.88
3780;BME280;1905;52.482;9.802;2023-04-19T05:46:46;102412.81;;;6.68;68.58
3780;BME280;1905;52.482;9.802;2023-04-19T05:49:22;102413.66;;;6.67;68.02
3780;BME280;1905;52.482;9.802;2023-04-19T05:52:13;102412.78;;;6.67;68.19
3780;BME280;1905;52.482;9.802;2023-04-19T05:54:47;102421.53;;;6.78;67.90
3780;BME280;1905;52.482;9.802;2023-04-19T05:57:15;102410.16;;;6.79;67.98
3780;BME280;1905;52.482;9.802;2023-04-19T05:59:43;102413.66;;;6.73;68.58
3780;BME280;1905;52.482;9.802;2023-04-19T06:02:14;102408.41;;;6.78;68.44
3780;BME280;1905;52.482;9.802;2023-04-19T06:04:42;102411.03;;;6.87;67.27
3780;BME280;1905;52.482;9.802;2023-04-19T06:07:10;102409.28;;;6.92;67.97
3780;BME280;1905;52.482;9.802;2023-04-19T06:09:56;102407.53;;;6.95;67.70
3780;BME280;1905;52.482;9.802;2023-04-19T06:12:23;102411.03;;;7.00;67.40
3780;BME280;1905;52.482;9.802;2023-04-19T06:14:51;102405.75;;;7.05;67.56
3780;BME280;1905;52.482;9.802;2023-04-19T06:17:21;102405.75;;;7.08;67.06
3780;BME280;1905;52.482;9.802;2023-04-19T06:19:51;102400.50;;;7.11;67.71
3780;BME280;1905;52.482;9.802;2023-04-19T06:22:18;102400.47;;;7.15;nan
3780;BME280;1905;52.482;9.802;2023-04-19T06:24:46;102396.97;;;7.27;66.72
3780;BME280;1905;52.482;9.802;2023-04-19T06:27:15;102396.09;;;7.25;66.74
3780;BME280;1905;52.482;9.802;2023-04-19T06:29:42;102402.22;;;7.27;66.90
3780;BME280;1905;52.482;9.802;2023-04-19T06:32:10;102395.19;;;7.35;66.88
3780;BME280;1905;52.482;9.802;2023-04-19T06:34:39;102395.19;;;7.41;65.97
3780;BME280;1905;52.482;9.802;2023-04-19T06:37:06;102389.91;;;7.41;65.79
3780;BME280;1905;52.482;9.802;2023-04-19T06:39:34;102392.50;;;7.50;65.84
3780;BME280;1905;52.482;9.802;2023-04-19T06:42:01;102393.38;;;7.52;66.36
3780;BME280;1905;52.482;9.802;2023-04-19T06:44:29;102393.34;;;7.58;65.38
3780;BME280;1905;52.482;9.802;2023-04-19T06:46:56;102392.47;;;7.62;64.92
3780;BME280;1905;52.482;9.802;2023-04-19T06:49:24;102393.31;;;7.67;64.50
3780;BME280;1905;52.482;9.802;2023-04-19T06:51:53;102390.69;;;7.69;65.28
3780;BME280;1905;52.482;9.802;2023-04-19T06:54:21;102394.19;;;7.74;65.28
3780;BME280;1905;52.482;9.802;2023-04-19T06:56:51;102386.28;;;7.74;64.66
3780;BME280;1905;52.482;9.802;2023-04-19T06:59:19;102387.13;;;7.82;65.00
3780;BME280;1905;52.482;9.802;2023-04-19T07:01:47;102383.56;;;7.89;65.17
3780;BME280;1905;52.482;9.802;2023-04-19T07:04:16;102387.06;;;7.96;63.49
3780;BME280;1905;52.482;9.802;2023-04-19T07:06:47;102382.66;;;7.96;64.17
3780;BME280;1905;52.482;9.802;2023-04-19T07:09:16;102380.88;;;8.00;64.52
3780;BME280;1905;52.482;9.802;2023-04-19T07:11:44;102372.09;;;8.07;63.29
3780;BME280;1905;52.482;9.802;2023-04-19T07:14:13;102371.19;;;8.09;63.89
3780;BME280;1905;52.482;9.802;2023-04-19T07:16:41;102360.63;;;8.14;64.21
3780;BME280;1905;52.482;9.802;2023-04-19T07:19:09;102368.44;;;8.26;64.04
3780;BME280;1905;52.482;9.802;2023-04-19T07:21:36;102367.59;;;8.28;63.81
3780;BME280;1905;52.482;9.802;2023-04-19T07:24:05;102365.75;;;8.35;62.58
3780;BME280;1905;52.482;9.802;2023-04-19T07:26:34;102356.97;;;8.37;62.60
3780;BME280;1905;52.482;9.802;2023-04-19T07:29:02;102355.19;;;8.41;62.06
3780;BME280;1905;52.482;9.802;2023-04-19T07:31:30;102356.00;;;8.49;62.05
3780;BME280;1905;52.482;9.802;2023-04-19T07:33:57;102345.44;;;8.52;61.57
3780;BME280;1905;52.482;9.802;2023-04-19T07:36:25;102348.91;;;8.57;61.78
3780;BME280;1905;52.482;9.802;2023-04-19T07:38:53;102343.63;;;8.60;61.31
3780;BME280;1905;52.482;9.802;2023-04-19T07:41:20;102345.31;;;8.69;61.46
3780;BME280;1905;52.482;9.802;2023-04-19T07:43:50;102336.50;;;8.71;61.95
3780;BME280;1905;52.482;9.802;2023-04-19T07:46:17;102334.66;;;8.79;61.17
3780;BME280;1905;52.482;9.802;2023-04-19T07:48:45;102333.72;;;8.83;61.26
3780;BME280;1905;52.482;9.802;2023-04-19T07:51:14;102332.81;;;8.90;59.87
3780;BME280;1905;52.482;9.802;2023-04-19T07:53:42;102337.09;;;8.99;60.41
3780;BME280;1905;52.482;9.802;2023-04-19T07:56:10;102334.38;;;9.07;60.76
3780;BME280;1905;52.482;9.802;2023-04-19T07:58:38;102342.22;;;9.13;60.79
3780;BME280;1905;52.482;9.802;2023-04-19T08:01:08;102334.22;;;9.19;59.94
3780;BME280;1905;52.482;9.802;2023-04-19T08:03:36;102327.97;;;9.27;57.92
3780;BME280;1905;52.482;9.802;2023-04-19T08:06:05;102318.22;;;9.37;59.14
3780;BME280;1905;52.482;9.802;2023-04-19T08:08:34;102338.31;;;9.45;57.25
3780;BME280;1905;52.482;9.802;2023-04-19T08:11:01;102333.78;;;9.55;55.99
3780;BME280;1905;52.482;9.802;2023-04-19T08:13:29;102317.94;;;9.58;56.34
3780;BME280;1905;52.482;9.802;2023-04-19T08:15:57;102321.25;;;9.72;55.88
3780;BME280;1905;52.482;9.802;2023-04-19T08:18:29;102322.03;;;9.80;57.45
3780;BME280;1905;52.482;9.802;2023-04-19T08:20:57;102315.72;;;9.92;57.43
3780;BME280;1905;52.482;9.802;2023-04-19T08:23:24;102320.78;;;10.04;58.52
3780;BME280;1905;52.482;9.802;2023-04-19T08:26:00;102317.19;;;10.09;58.16
3780;BME280;1905;52.482;9.802;2023-04-19T08:28:27;102305.59;;;10.20;56.65
3780;BME280;1905;52.482;9.802;2023-04-19T08:30:57;102299.19;;;10.36;55.73
3780;BME280;1905;52.482;9.802;2023-04-19T08:33:25;102313.03;;;10.50;54.95
3780;BME280;1905;52.482;9.802;2023-04-19T08:35:54;102301.34;;;10.63;55.85
3780;BME280;1905;52.482;9.802;2023-04-19T08:38:21;102296.84;;;10.69;55.25
3780;BME280;1905;52.482;9.802;2023-04-19T08:40:51;102298.38;;;10.81;55.89
3780;BME280;1905;52.482;9.802;2023-04-19T08:43:20;102298.06;;;10.98;52.81
3780;BME280;1905;52.482;9.802;2023-04-19T08:45:48;102298.69;;;11.10;54.42
3780;BME280;1905;52.482;9.802;2023-04-19T08:48:16;102294.13;;;11.18;53.31
3780;BME280;1905;52.482;9.802;2023-04-19T08:50:44;102284.97;;;11.34;56.32
3780;BME280;1905;52.482;9.802;2023-04-19T08:53:32;102296.31;;;11.40;52.86
3780;BME280;1905;52.482;9.802;2023-04-19T08:56:00;102289.31;;;11.37;49.58
3780;BME280;1905;52.482;9.802;2023-04-19T08:58:31;102288.06;;;11.55;54.36
3780;BME280;1905;52.482;9.802;2023-04-19T09:01:06;102279.00;;;11.65;52.13
3780;BME280;1905;52.482;9.802;2023-04-19T09:03:43;102275.28;;;11.75;50.67
3780;BME280;1905;52.482;9.802;2023-04-19T09:06:28;102274.19;;;11.83;52.18
3780;BME280;1905;52.482;9.802;2023-04-19T09:09:13;102264.19;;;11.96;51.32
3780;BME280;1905;52.482;9.802;2023-04-19T09:12:00;102261.47;;;11.99;52.05
3780;BME280;1905;52.482;9.802;2023-04-19T09:14:28;102265.72;;;12.06;52.45
3780;BME280;1905;52.482;9.802;2023-04-19T09:17:11;102262.00;;;12.13;50.33
3780;BME280;1905;52.482;9.802;2023-04-19T09:19:44;102254.72;;;12.21;51.91
3780;BME280;1905;52.482;9.802;2023-04-19T09:22:13;102246.50;;;12.32;53.36
3780;BME280;1905;52.482;9.802;2023-04-19T09:24:42;102243.75;;;12.36;50.13
3780;BME280;1905;52.482;9.802;2023-04-19T09:27:16;102235.91;;;12.33;48.46
3780;BME280;1905;52.482;9.802;2023-04-19T09:29:52;102233.19;;;12.35;49.41
3780;BME280;1905;52.482;9.802;2023-04-19T09:32:19;102220.75;;;12.38;52.75
3780;BME280;1905;52.482;9.802;2023-04-19T09:34:52;102231.06;;;12.47;53.20
3780;BME280;1905;52.482;9.802;2023-04-19T09:37:21;102215.09;;;12.50;49.80
3780;BME280;1905;52.482;9.802;2023-04-19T09:40:22;102209.72;;;12.53;49.65
3780;BME280;1905;52.482;9.802;2023-04-19T09:42:50;102208.84;;;12.53;49.78
3780;BME280;1905;52.482;9.802;2023-04-19T09:45:21;102200.00;;;12.54;51.27
3780;BME280;1905;52.482;9.802;2023-04-19T09:48:00;102199.19;;;12.50;46.57
3780;BME280;1905;52.482;9.802;2023-04-19T09:50:28;102192.13;;;12.51;49.71
3780;BME280;1905;52.482;9.802;2023-04-19T09:52:58;102190.34;;;12.51;48.70
3780;BME280;1905;52.482;9.802;2023-04-19T09:55:27;102183.13;;;12.57;50.51
3780;BME280;1905;52.482;9.802;2023-04-19T09:58:06;102174.38;;;12.54;51.24
3780;BME280;1905;52.482;9.802;2023-04-19T10:00:34;102177.03;;;12.53;49.72
3780;BME280;1905;52.482;9.802;2023-04-19T10:03:15;102172.59;;;12.55;49.28
3780;BME280;1905;52.482;9.802;2023-04-19T10:05:44;102155.94;;;12.50;48.19
3780;BME280;1905;52.482;9.802;2023-04-19T10:08:12;102153.41;;;12.45;50.56
3780;BME280;1905;52.482;9.802;2023-04-19T10:10:44;102158.53;;;12.51;47.22
3780;BME280;1905;52.482;9.802;2023-04-19T10:13:17;102149.69;;;12.52;48.52
3780;BME280;1905;52.482;9.802;2023-04-19T10:15:52;102143.59;;;12.49;49.83
3780;BME280;1905;52.482;9.802;2023-04-19T10:18:37;102138.16;;;12.53;47.17
3780;BME280;1905;52.482;9.802;2023-04-19T10:21:07;102144.19;;;12.59;48.49
3780;BME280;1905;52.482;9.802;2023-04-19T10:23:36;102131.88;;;12.58;46.65
3780;BME280;1905;52.482;9.802;2023-04-19T10:26:06;102132.63;;;12.63;45.93
3780;BME280;1905;52.482;9.802;2023-04-19T10:28:34;102125.44;;;12.66;46.78
3780;BME280;1905;52.482;9.802;2023-04-19T10:31:03;102126.28;;;12.67;46.82
3780;BME280;1905;52.482;9.802;2023-04-19T10:33:34;102117.28;;;12.72;47.26
3780;BME280;1905;52.482;9.802;2023-04-19T10:36:02;102122.56;;;12.74;46.07
3780;BME280;1905;52.482;9.802;2023-04-19T10:38:38;102110.91;;;12.79;47.40
3780;BME280;1905;52.482;9.802;2023-04-19T10:41:08;102127.78;;;12.77;47.33
3780;BME280;1905;52.482;9.802;2023-04-19T10:43:44;102115.53;;;12.73;46.24
3780;BME280;1905;52.482;9.802;2023-04-19T10:46:15;102113.81;;;12.72;46.33
3780;BME280;1905;52.482;9.802;2023-04-19T10:48:51;102110.13;;;12.76;45.82
3780;BME280;1905;52.482;9.802;2023-04-19T10:51:21;102103.84;;;12.80;46.75
3780;BME280;1905;52.482;9.802;2023-04-19T10:53:54;102100.31;;;12.79;45.99
3780;BME280;1905;52.482;9.802;2023-04-19T10:57:00;102099.38;;;12.80;48.14
3780;BME280;1905;52.482;9.802;2023-04-19T10:59:30;102090.66;;;12.77;46.43
3780;BME280;1905;52.482;9.802;2023-04-19T11:01:59;102089.72;;;12.79;45.60
3780;BME280;1905;52.482;9.802;2023-04-19T11:05:01;102091.53;;;12.77;46.39
3780;BME280;1905;52.482;9.802;2023-04-19T11:07:37;102080.00;;;12.78;45.90
3780;BME280;1905;52.482;9.802;2023-04-19T11:10:07;102078.13;;;12.82;45.57
3780;BME280;1905;52.482;9.802;2023-04-19T11:12:36;102075.50;;;12.80;46.67
3780;BME280;1905;52.482;9.802;2023-04-19T11:15:05;102064.91;;;12.80;47.29
3780;BME280;1905;52.482;9.802;2023-04-19T11:17:34;102061.34;;;12.81;45.82
3780;BME280;1905;52.482;9.802;2023-04-19T11:20:05;102064.72;;;12.86;45.58
3780;BME280;1905;52.482;9.802;2023-04-19T11:22:35;102070.81;;;12.90;45.79
3780;BME280;1905;52.482;9.802;2023-04-19T11:25:04;102056.75;;;12.88;46.06
3780;BME280;1905;52.482;9.802;2023-04-19T11:27:32;102048.72;;;12.89;47.06
3780;BME280;1905;52.482;9.802;2023-04-19T11:30:06;102049.53;;;12.91;47.40
3780;BME280;1905;52.482;9.802;2023-04-19T11:32:34;102039.66;;;12.96;46.34
3780;BME280;1905;52.482;9.802;2023-04-19T11:35:07;102041.41;;;12.97;47.48
3780;BME280;1905;52.482;9.802;2023-04-19T11:37:36;102030.59;;;13.03;45.73
3780;BME280;1905;52.482;9.802;2023-04-19T11:40:06;102039.53;;;13.01;45.29
3780;BME280;1905;52.482;9.802;2023-04-19T11:42:34;102040.34;;;13.03;47.45
3780;BME280;1905;52.482;9.802;2023-04-19T11:45:02;102033.19;;;13.05;46.33
3780;BME280;1905;52.482;9.802;2023-04-19T11:47:45;102033.03;;;13.11;48.13
3780;BME280;1905;52.482;9.802;2023-04-19T11:50:31;102022.53;;;13.08;47.25
3780;BME280;1905;52.482;9.802;2023-04-19T11:53:08;102025.31;;;13.03;47.33
3780;BME280;1905;52.482;9.802;2023-04-19T11:55:36;102022.75;;;13.00;46.68
3780;BME280;1905;52.482;9.802;2023-04-19T11:58:05;102035.13;;;13.00;44.92
3780;BME280;1905;52.482;9.802;2023-04-19T12:00:36;102019.13;;;13.03;45.67
3780;BME280;1905;52.482;9.802;2023-04-19T12:03:05;101996.94;;;13.07;45.71
3780;BME280;1905;52.482;9.802;2023-04-19T12:05:33;102018.81;;;13.13;46.55
3780;BME280;1905;52.482;9.802;2023-04-19T12:08:02;102025.69;;;13.19;47.47
3780;BME280;1905;52.482;9.802;2023-04-19T12:10:30;102010.56;;;13.23;47.28
3780;BME280;1905;52.482;9.802;2023-04-19T12:12:58;102009.28;;;13.34;45.62
3780;BME280;1905;52.482;9.802;2023-04-19T12:15:40;102006.41;;;13.40;47.16
3780;BME280;1905;52.482;9.802;2023-04-19T12:18:09;102011.59;;;13.43;46.90
3780;BME280;1905;52.482;9.802;2023-04-19T12:20:42;101996.28;;;13.51;48.04
3780;BME280;1905;52.482;9.802;2023-04-19T12:23:10;102000.63;;;13.54;47.23
3780;BME280;1905;52.482;9.802;2023-04-19T12:25:39;102003.13;;;13.58;47.21
3780;BME280;1905;52.482;9.802;2023-04-19T12:28:06;102001.19;;;13.63;48.20
3780;BME280;1905;52.482;9.802;2023-04-19T12:30:34;101990.78;;;13.57;49.09
3780;BME280;1905;52.482;9.802;2023-04-19T12:33:02;101997.47;;;13.67;47.56
3780;BME280;1905;52.482;9.802;2023-04-19T12:35:32;101988.50;;;13.71;48.63
3780;BME280;1905;52.482;9.802;2023-04-19T12:38:00;101993.34;;;13.84;48.89
3780;BME280;1905;52.482;9.802;2023-04-19T12:40:29;101993.25;;;13.87;48.04
3780;BME280;1905;52.482;9.802;2023-04-19T12:42:57;101987.81;;;13.90;46.76
3780;BME280;1905;52.482;9.802;2023-04-19T12:45:24;101988.69;;;13.90;47.55
3780;BME280;1905;52.482;9.802;2023-04-19T12:47:52;101981.44;;;13.95;49.71
3780;BME280;1905;52.482;9.802;2023-04-19T12:50:19;101974.00;;;14.05;50.18
3780;BME280;1905;52.482;9.802;2023-04-19T12:52:48;101974.81;;;14.07;47.90
3780;BME280;1905;52.482;9.802;2023-04-19T12:55:17;101973.72;;;14.12;50.23
3780;BME280;1905;52.482;9.802;2023-04-19T12:57:44;101979.06;;;14.11;47.92
3780;BME280;1905;52.482;9.802;2023-04-19T13:00:13;101982.41;;;14.16;47.49
3780;BME280;1905;52.482;9.802;2023-04-19T13:02:41;101970.81;;;14.18;47.81
3780;BME280;1905;52.482;9.802;2023-04-19T13:05:09;101959.78;;;14.29;48.84
3780;BME280;1905;52.482;9.802;2023-04-19T13:07:37;101959.44;;;14.38;49.47
3780;BME280;1905;52.482;9.802;2023-04-19T13:10:07;101964.41;;;14.47;50.72
3780;BME280;1905;52.482;9.802;2023-04-19T13:12:35;101959.78;;;14.52;49.57
3780;BME280;1905;52.482;9.802;2023-04-19T13:15:03;101958.63;;;14.59;49.61
3780;BME280;1905;52.482;9.802;2023-04-19T13:17:31;101952.00;;;14.69;50.81
3780;BME280;1905;52.482;9.802;2023-04-19T13:19:58;101946.25;;;14.80;51.15
3780;BME280;1905;52.482;9.802;2023-04-19T13:22:26;101942.50;;;14.84;48.98
3780;BME280;1905;52.482;9.802;2023-04-19T13:24:53;101945.59;;;14.95;52.35
3780;BME280;1905;52.482;9.802;2023-04-19T13:27:22;101953.66;;;14.94;49.67
3780;BME280;1905;52.482;9.802;2023-04-19T13:29:50;101955.13;;;15.01;50.17
3780;BME280;1905;52.482;9.802;2023-04-19T13:32:17;101949.44;;;15.10;51.30